Time;durP1;ratioP1;P1;durP2;ratioP2;P2;SDS_P1;SDS_P2;PMS_P1;PMS_P2;Temp;Humidity;BMP_temperature;BMP_pressure;BME280_temperature;BME280_humidity;BME280_pressure;Samples;Min_cycle;Max_cycle;Signal;HPM_P1;HPM_P2
2023/07/13 00:00:33;;;;;;;9.93;1.30;;;15.60;82.60;;;;;;4865096;28;92971;-80
2023/07/13 00:02:59;;;;;;;6.90;1.15;;;15.50;82.80;;;;;;4873535;28;93089;-81
2023/07/13 00:05:24;;;;;;;4.50;1.00;;;15.50;83.00;;;;;;4876494;28;96776;-80
2023/07/13 00:07:51;;;;;;;4.45;1.00;;;15.50;83.30;;;;;;4876606;28;95107;-80
2023/07/13 00:10:17;;;;;;;4.70;0.90;;;15.50;83.40;;;;;;4876204;28;92441;-80
2023/07/13 00:12:44;;;;;;;7.78;2.05;;;15.50;83.70;;;;;;4876319;28;92285;-80
2023/07/13 00:15:22;;;;;;;5.43;0.80;;;15.50;83.90;;;;;;4860265;28;96395;-80
2023/07/13 00:17:49;;;;;;;3.50;1.15;;;15.50;83.80;;;;;;4860271;28;95069;-79
2023/07/13 00:20:15;;;;;;;4.45;1.38;;;15.50;84.30;;;;;;4877938;28;93272;-80
2023/07/13 00:22:41;;;;;;;8.02;1.25;;;15.40;84.20;;;;;;4877838;28;92973;-80
2023/07/13 00:25:11;;;;;;;5.53;1.00;;;15.40;84.60;;;;;;4877554;28;93674;-79
2023/07/13 00:27:37;;;;;;;4.80;1.10;;;15.40;84.70;;;;;;4877931;28;94363;-79
2023/07/13 00:30:03;;;;;;;5.25;1.30;;;15.40;84.70;;;;;;4862719;28;92621;-79
2023/07/13 00:32:29;;;;;;;8.10;1.40;;;15.40;85.20;;;;;;4879008;28;92426;-80
2023/07/13 00:34:56;;;;;;;11.00;1.60;;;15.40;85.40;;;;;;4859998;28;96641;-79
2023/07/13 00:37:22;;;;;;;9.13;1.30;;;15.40;85.60;;;;;;4858800;28;96420;-79
2023/07/13 00:39:48;;;;;;;7.82;1.42;;;15.40;85.90;;;;;;4877454;28;92874;-79
2023/07/13 00:42:14;;;;;;;8.50;1.50;;;15.40;86.10;;;;;;4861101;28;92994;-79
2023/07/13 00:44:39;;;;;;;9.93;1.73;;;15.40;86.30;;;;;;4875785;28;96963;-79
2023/07/13 00:47:06;;;;;;;7.47;1.33;;;15.40;86.50;;;;;;4876489;28;97343;-80
2023/07/13 00:49:35;;;;;;;4.80;1.30;;;15.40;86.40;;;;;;4877030;28;92735;-80
2023/07/13 00:52:09;;;;;;;5.95;1.42;;;15.40;86.80;;;;;;4875183;28;92609;-79
2023/07/13 00:54:45;;;;;;;8.02;1.20;;;15.40;87.10;;;;;;4861266;28;95850;-79
2023/07/13 00:57:15;;;;;;;9.20;1.55;;;15.40;87.40;;;;;;4877691;28;92978;-79
2023/07/13 00:59:45;;;;;;;6.95;1.20;;;15.30;87.70;;;;;;4879352;28;92834;-79
2023/07/13 01:02:11;;;;;;;8.88;1.58;;;15.30;87.80;;;;;;4878944;28;91739;-79
2023/07/13 01:04:38;;;;;;;5.47;1.27;;;15.30;88.00;;;;;;4878278;28;93143;-80
2023/07/13 01:07:05;;;;;;;12.15;2.17;;;15.30;88.50;;;;;;4869080;28;95945;-79
2023/07/13 01:09:32;;;;;;;7.95;1.48;;;15.20;88.50;;;;;;4878827;28;93887;-79
2023/07/13 01:11:59;;;;;;;9.80;1.88;;;15.30;88.70;;;;;;4881160;28;92696;-79
2023/07/13 01:14:26;;;;;;;8.30;1.70;;;15.30;88.70;;;;;;4865973;28;93234;-79
2023/07/13 01:16:52;;;;;;;5.82;1.33;;;15.30;88.70;;;;;;4863450;28;95160;-79
2023/07/13 01:19:35;;;;;;;8.75;1.35;;;15.30;88.80;;;;;;4880961;28;92987;-79
2023/07/13 01:22:03;;;;;;;8.80;1.80;;;15.30;88.80;;;;;;4880023;28;92292;-79
2023/07/13 01:24:29;;;;;;;6.75;1.20;;;15.30;88.90;;;;;;4865042;28;98332;-80
2023/07/13 01:26:55;;;;;;;7.50;1.13;;;15.20;89.00;;;;;;4879887;28;95055;-80
2023/07/13 01:29:21;;;;;;;10.98;1.55;;;15.20;89.20;;;;;;4880055;28;92777;-79
2023/07/13 01:31:47;;;;;;;5.55;1.50;;;15.20;89.50;;;;;;4880741;28;93012;-79
2023/07/13 01:34:13;;;;;;;4.50;0.98;;;15.20;89.70;;;;;;4863458;28;98067;-80
2023/07/13 01:36:38;;;;;;;6.03;1.45;;;15.20;89.80;;;;;;4880969;28;94324;-80
2023/07/13 01:39:04;;;;;;;9.45;1.30;;;15.20;90.00;;;;;;4865060;28;92814;-79
2023/07/13 01:41:30;;;;;;;7.05;1.52;;;15.20;90.00;;;;;;4881739;28;92597;-80
2023/07/13 01:43:56;;;;;;;6.28;1.63;;;15.10;90.00;;;;;;4879727;28;93676;-79
2023/07/13 01:46:21;;;;;;;8.10;1.85;;;15.10;90.10;;;;;;4863294;28;94969;-79
2023/07/13 01:48:47;;;;;;;9.23;1.70;;;15.00;90.50;;;;;;4881428;28;92719;-80
2023/07/13 01:51:13;;;;;;;6.85;1.27;;;15.00;90.40;;;;;;4882271;28;92005;-80
2023/07/13 01:53:39;;;;;;;9.80;1.38;;;14.90;90.60;;;;;;4865526;28;96746;-79
2023/07/13 01:56:04;;;;;;;8.23;1.75;;;14.80;90.80;;;;;;4881472;28;95718;-80
2023/07/13 01:58:30;;;;;;;5.93;1.63;;;14.80;90.90;;;;;;4880180;28;93380;-80
2023/07/13 02:00:57;;;;;;;10.82;2.03;;;14.80;91.20;;;;;;4881791;28;92647;-80
2023/07/13 02:03:22;;;;;;;8.52;1.30;;;14.80;91.20;;;;;;4863167;28;94668;-79
2023/07/13 02:05:48;;;;;;;5.32;1.50;;;14.80;91.20;;;;;;4879805;28;96182;-79
2023/07/13 02:08:14;;;;;;;8.07;1.65;;;14.70;91.30;;;;;;4865958;28;92550;-80
2023/07/13 02:10:40;;;;;;;7.60;1.65;;;14.80;91.60;;;;;;4879516;28;93068;-79
2023/07/13 02:13:06;;;;;;;10.82;1.90;;;14.80;91.60;;;;;;4881957;28;93153;-80
2023/07/13 02:15:32;;;;;;;7.55;1.50;;;14.70;91.60;;;;;;4881413;28;93268;-79
2023/07/13 02:17:58;;;;;;;13.75;2.20;;;14.70;91.50;;;;;;4870737;28;93096;-79
2023/07/13 02:20:24;;;;;;;10.73;1.90;;;14.70;91.60;;;;;;4881699;28;92896;-80
2023/07/13 02:22:50;;;;;;;2.55;1.00;;;14.70;91.80;;;;;;4880635;28;95277;-80
2023/07/13 02:25:16;;;;;;;11.27;1.50;;;14.60;91.80;;;;;;4880250;28;94691;-80
2023/07/13 02:27:41;;;;;;;6.00;1.65;;;14.60;92.00;;;;;;4879500;28;92608;-80
2023/07/13 02:30:07;;;;;;;6.95;1.92;;;14.50;92.10;;;;;;4862846;28;93199;-80
2023/07/13 02:32:33;;;;;;;4.13;1.70;;;14.50;92.10;;;;;;4878361;28;97771;-79
2023/07/13 02:34:59;;;;;;;5.53;1.55;;;14.50;92.30;;;;;;4879199;28;93986;-79
2023/07/13 02:37:25;;;;;;;6.40;1.58;;;14.40;92.20;;;;;;4880068;28;92667;-79
2023/07/13 02:39:50;;;;;;;7.30;2.08;;;14.40;92.40;;;;;;4880358;28;92175;-80
2023/07/13 02:42:16;;;;;;;10.52;1.65;;;14.40;92.60;;;;;;4863476;28;96521;-80
2023/07/13 02:44:41;;;;;;;5.93;1.63;;;14.40;92.60;;;;;;4879580;28;94043;-80
2023/07/13 02:47:07;;;;;;;6.53;1.70;;;14.30;92.60;;;;;;4879504;28;93525;-79
2023/07/13 02:49:33;;;;;;;13.20;2.88;;;14.30;92.80;;;;;;4878663;28;92180;-79
2023/07/13 02:51:58;;;;;;;9.55;1.75;;;14.30;92.80;;;;;;4880282;28;92939;-79
2023/07/13 02:54:24;;;;;;;8.77;1.95;;;14.30;92.80;;;;;;4880935;28;93401;-80
2023/07/13 02:56:50;;;;;;;5.00;1.48;;;14.30;92.90;;;;;;4881045;28;92828;-79
2023/07/13 02:59:15;;;;;;;14.25;2.88;;;14.20;93.00;;;;;;4880356;28;93847;-79
2023/07/13 03:01:41;;;;;;;7.47;1.88;;;14.20;93.20;;;;;;4879676;28;96734;-80
2023/07/13 03:04:06;;;;;;;15.65;2.55;;;14.20;93.00;;;;;;4880339;28;93505;-79
2023/07/13 03:06:33;;;;;;;6.72;1.95;;;14.20;93.40;;;;;;4863642;28;92688;-80
2023/07/13 03:09:00;;;;;;;15.82;2.80;;;14.10;93.30;;;;;;4878056;28;92689;-80
2023/07/13 03:11:26;;;;;;;10.82;2.53;;;14.10;93.40;;;;;;4880665;28;97359;-80
2023/07/13 03:13:52;;;;;;;7.53;2.03;;;14.10;93.60;;;;;;4864583;28;97607;-80
2023/07/13 03:16:17;;;;;;;11.25;2.55;;;14.10;93.60;;;;;;4871092;28;92305;-80
2023/07/13 03:18:44;;;;;;;8.32;2.20;;;14.10;93.70;;;;;;4880304;28;92809;-80
2023/07/13 03:21:10;;;;;;;13.00;2.92;;;14.10;93.60;;;;;;4878047;28;97192;-80
2023/07/13 03:23:36;;;;;;;7.60;2.10;;;14.10;94.00;;;;;;4880908;28;93145;-80
2023/07/13 03:26:07;;;;;;;6.18;1.85;;;14.10;93.90;;;;;;4880265;28;92272;-79
2023/07/13 03:28:33;;;;;;;9.60;1.75;;;14.00;93.90;;;;;;4863301;28;92045;-80
2023/07/13 03:31:05;;;;;;;9.05;2.63;;;14.00;93.90;;;;;;4879508;28;92986;-80
2023/07/13 03:33:31;;;;;;;10.13;1.98;;;14.00;94.00;;;;;;4878959;28;92336;-80
2023/07/13 03:35:57;;;;;;;12.32;2.10;;;14.00;94.30;;;;;;4879386;28;94090;-79
2023/07/13 03:38:22;;;;;;;8.00;2.25;;;14.00;94.30;;;;;;4865656;28;92731;-80
2023/07/13 03:40:48;;;;;;;9.75;2.33;;;14.00;94.30;;;;;;4867131;28;96027;-80
2023/07/13 03:43:14;;;;;;;11.50;2.40;;;14.00;94.40;;;;;;4868256;28;93955;-80
2023/07/13 03:45:40;;;;;;;12.18;2.42;;;14.00;94.60;;;;;;4883886;28;92819;-80
2023/07/13 03:48:06;;;;;;;12.25;2.97;;;14.00;94.70;;;;;;4866394;28;93124;-80
2023/07/13 03:50:31;;;;;;;19.13;2.90;;;14.00;94.70;;;;;;4885039;28;93930;-80
2023/07/13 03:52:58;;;;;;;10.32;2.70;;;14.10;94.70;;;;;;4867142;28;96898;-80
2023/07/13 03:55:24;;;;;;;10.02;2.60;;;14.10;94.70;;;;;;4882730;28;92772;-81
2023/07/13 03:57:59;;;;;;;7.80;2.85;;;14.10;94.80;;;;;;4867418;28;92169;-79
2023/07/13 04:00:25;;;;;;;9.60;2.50;;;14.20;94.80;;;;;;4871948;28;97518;-80
2023/07/13 04:02:51;;;;;;;13.77;2.47;;;14.20;94.80;;;;;;4884395;28;94514;-79
2023/07/13 04:05:17;;;;;;;9.77;2.55;;;14.30;94.90;;;;;;4885293;28;92433;-80
2023/07/13 04:07:42;;;;;;;12.27;2.67;;;14.30;94.80;;;;;;4874860;28;93023;-80
2023/07/13 04:10:09;;;;;;;10.45;3.10;;;14.30;94.80;;;;;;4866236;28;96890;-80
2023/07/13 04:12:34;;;;;;;12.80;3.13;;;14.30;94.70;;;;;;4885576;28;94148;-80
2023/07/13 04:15:00;;;;;;;13.65;2.80;;;14.40;94.90;;;;;;4884222;28;92718;-79
2023/07/13 04:17:26;;;;;;;9.65;2.67;;;14.40;94.90;;;;;;4885674;28;91932;-80
2023/07/13 04:19:51;;;;;;;13.70;3.20;;;14.40;95.00;;;;;;4882117;28;95604;-79
2023/07/13 04:22:17;;;;;;;10.88;2.83;;;14.50;94.90;;;;;;4867956;28;95682;-80
2023/07/13 04:24:43;;;;;;;13.80;3.08;;;14.60;95.00;;;;;;4885772;28;93578;-80
2023/07/13 04:27:09;;;;;;;16.27;3.15;;;14.60;95.00;;;;;;4877740;28;92929;-80
2023/07/13 04:29:34;;;;;;;18.20;2.88;;;14.60;95.10;;;;;;4875301;28;95897;-80
2023/07/13 04:32:00;;;;;;;15.48;3.42;;;14.70;95.00;;;;;;4878174;28;93013;-80
2023/07/13 04:34:26;;;;;;;16.23;3.13;;;14.70;94.70;;;;;;4876285;28;92843;-80
2023/07/13 04:36:52;;;;;;;17.33;2.90;;;14.80;94.80;;;;;;4876040;28;92284;-80
2023/07/13 04:39:17;;;;;;;7.82;2.47;;;14.80;94.70;;;;;;4876729;28;93795;-80
2023/07/13 04:41:43;;;;;;;7.93;2.22;;;14.80;94.70;;;;;;4878312;28;93901;-80
2023/07/13 04:44:09;;;;;;;9.88;2.63;;;14.90;94.70;;;;;;4881681;28;92251;-80
2023/07/13 04:46:34;;;;;;;19.42;3.20;;;14.90;94.60;;;;;;4864524;28;92791;-80
2023/07/13 04:49:00;;;;;;;14.10;2.50;;;15.00;94.50;;;;;;4881055;28;94222;-80
2023/07/13 04:51:26;;;;;;;12.52;2.42;;;15.10;94.30;;;;;;4880135;28;96307;-80
2023/07/13 04:53:52;;;;;;;11.88;2.80;;;15.10;94.40;;;;;;4879674;28;92600;-80
2023/07/13 04:56:19;;;;;;;18.15;3.83;;;15.20;94.20;;;;;;4882481;28;92727;-80
2023/07/13 04:58:45;;;;;;;16.33;3.25;;;15.20;94.10;;;;;;4864315;28;96529;-80
2023/07/13 05:01:10;;;;;;;10.93;2.63;;;15.20;94.20;;;;;;4881109;28;93523;-81
2023/07/13 05:03:36;;;;;;;17.00;3.00;;;15.30;94.10;;;;;;4864753;28;92841;-80
2023/07/13 05:06:09;;;;;;;12.50;3.00;;;15.30;94.00;;;;;;4864909;28;91995;-80
2023/07/13 05:08:37;;;;;;;11.80;2.38;;;15.30;94.00;;;;;;4866022;28;96161;-80
2023/07/13 05:11:04;;;;;;;9.45;2.30;;;15.40;93.80;;;;;;4872344;28;94365;-80
2023/07/13 05:13:30;;;;;;;13.43;2.70;;;15.40;93.80;;;;;;4879428;28;93770;-80
2023/07/13 05:15:58;;;;;;;14.45;2.65;;;15.40;93.90;;;;;;4881659;28;92812;-80
2023/07/13 05:18:24;;;;;;;12.60;3.22;;;15.40;94.00;;;;;;4863721;28;96405;-80
2023/07/13 05:21:11;;;;;;;15.68;3.55;;;15.50;94.00;;;;;;4877812;28;92704;-80
2023/07/13 05:23:37;;;;;;;17.40;3.10;;;15.50;93.80;;;;;;4878720;28;92724;-80
2023/07/13 05:26:03;;;;;;;18.05;3.05;;;15.60;93.90;;;;;;4877609;28;92905;-81
2023/07/13 05:28:31;;;;;;;11.82;2.88;;;15.60;93.70;;;;;;4867869;28;95304;-80
2023/07/13 05:30:57;;;;;;;8.93;3.00;;;15.70;93.70;;;;;;4868294;28;96142;-80
2023/07/13 05:33:24;;;;;;;12.90;2.47;;;15.70;93.50;;;;;;4875834;28;93060;-80
2023/07/13 05:35:50;;;;;;;14.63;2.97;;;15.70;93.60;;;;;;4877293;28;93071;-80
2023/07/13 05:38:16;;;;;;;16.92;2.80;;;15.80;93.70;;;;;;4867127;28;97206;-80
2023/07/13 05:40:45;;;;;;;16.77;4.00;;;15.80;93.60;;;;;;4866540;28;97099;-80
2023/07/13 05:43:11;;;;;;;18.20;2.75;;;15.90;93.70;;;;;;4874830;28;92910;-80
2023/07/13 05:45:37;;;;;;;18.90;4.60;;;16.00;93.60;;;;;;4876223;28;93040;-80
2023/07/13 05:48:03;;;;;;;17.60;3.28;;;16.00;93.50;;;;;;4858485;28;96862;-80
2023/07/13 05:50:28;;;;;;;15.10;3.38;;;16.10;93.30;;;;;;4876627;28;93095;-80
2023/07/13 05:52:54;;;;;;;11.82;3.08;;;16.20;93.40;;;;;;4876003;28;92802;-80
2023/07/13 05:55:20;;;;;;;18.23;3.55;;;16.20;93.40;;;;;;4875294;28;91707;-80
2023/07/13 05:57:46;;;;;;;15.48;3.20;;;16.30;93.20;;;;;;4858342;28;96605;-80
2023/07/13 06:00:13;;;;;;;16.90;3.30;;;16.30;93.00;;;;;;4858558;28;96465;-81
2023/07/13 06:02:38;;;;;;;19.58;3.00;;;16.40;92.90;;;;;;4875476;28;93627;-80
2023/07/13 06:05:04;;;;;;;14.13;2.95;;;16.40;93.00;;;;;;4876555;28;92561;-80
2023/07/13 06:07:30;;;;;;;16.75;3.58;;;16.40;93.00;;;;;;4866896;28;97950;-80
2023/07/13 06:09:56;;;;;;;14.63;3.35;;;16.50;92.90;;;;;;4873258;28;96555;-81
2023/07/13 06:12:22;;;;;;;13.57;3.10;;;16.60;92.80;;;;;;4859200;28;92940;-81
2023/07/13 06:14:47;;;;;;;11.35;3.05;;;16.70;92.70;;;;;;4875054;28;92711;-80
2023/07/13 06:17:13;;;;;;;18.10;3.00;;;16.70;92.60;;;;;;4876290;28;92678;-81
2023/07/13 06:19:38;;;;;;;15.00;2.88;;;16.80;92.80;;;;;;4875172;28;93631;-80
2023/07/13 06:22:04;;;;;;;11.25;3.20;;;16.80;92.40;;;;;;4875353;28;92646;-80
2023/07/13 06:24:30;;;;;;;16.25;3.30;;;16.90;92.30;;;;;;4858964;28;92414;-80
2023/07/13 06:26:56;;;;;;;16.65;3.13;;;16.90;92.20;;;;;;4857261;28;98202;-81
2023/07/13 06:29:22;;;;;;;26.55;3.80;;;17.00;91.90;;;;;;4876009;28;93494;-80
2023/07/13 06:31:47;;;;;;;15.73;3.20;;;17.00;91.70;;;;;;4875597;28;92127;-80
2023/07/13 06:34:13;;;;;;;14.65;3.25;;;17.10;91.90;;;;;;4858794;28;92537;-80
2023/07/13 06:36:38;;;;;;;16.02;3.05;;;17.20;92.10;;;;;;4875644;28;93891;-81
2023/07/13 06:39:06;;;;;;;11.23;2.92;;;17.30;91.50;;;;;;4873800;28;95214;-85
2023/07/13 06:41:32;;;;;;;13.30;3.28;;;17.30;91.50;;;;;;4875168;28;92514;-84
2023/07/13 06:43:58;;;;;;;14.73;3.33;;;17.40;91.30;;;;;;4859633;28;92139;-85
2023/07/13 06:46:24;;;;;;;12.25;2.22;;;17.50;91.60;;;;;;4867179;28;96914;-85
2023/07/13 06:48:50;;;;;;;10.45;2.72;;;17.60;90.80;;;;;;4859646;28;96424;-85
2023/07/13 06:51:16;;;;;;;19.30;3.83;;;17.50;91.00;;;;;;4866938;28;93807;-84
2023/07/13 06:53:43;;;;;;;12.82;2.72;;;17.60;90.80;;;;;;4866563;28;92723;-83
2023/07/13 06:56:10;;;;;;;12.02;2.78;;;17.60;90.70;;;;;;4858750;28;96766;-84
2023/07/13 06:58:36;;;;;;;11.20;2.58;;;17.60;90.90;;;;;;4857950;28;96866;-84
2023/07/13 07:01:03;;;;;;;18.15;2.88;;;17.70;90.60;;;;;;4858401;28;93022;-87
2023/07/13 07:03:29;;;;;;;13.32;3.08;;;17.70;90.30;;;;;;4859777;28;92782;-84
2023/07/13 07:06:00;;;;;;;11.25;2.65;;;17.70;90.30;;;;;;4857611;28;95671;-84
2023/07/13 07:08:26;;;;;;;16.15;2.83;;;17.70;90.30;;;;;;4876164;28;93211;-82
2023/07/13 07:10:53;;;;;;;12.73;2.80;;;17.80;90.10;;;;;;4875911;28;92941;-83
2023/07/13 07:13:19;;;;;;;12.43;3.25;;;17.80;90.20;;;;;;4857796;28;92523;-84
2023/07/13 07:15:45;;;;;;;17.05;3.15;;;17.80;90.40;;;;;;4873777;28;93702;-84
2023/07/13 07:18:11;;;;;;;15.60;2.92;;;17.80;90.00;;;;;;4857973;28;97298;-82
2023/07/13 07:20:36;;;;;;;12.85;2.67;;;17.80;90.10;;;;;;4859239;28;92826;-83
2023/07/13 07:23:02;;;;;;;16.70;2.58;;;17.90;90.20;;;;;;4858034;28;92796;-82
2023/07/13 07:25:31;;;;;;;12.38;2.72;;;18.00;90.30;;;;;;4857953;28;95797;-81
2023/07/13 07:27:58;;;;;;;12.90;3.10;;;18.20;90.20;;;;;;4865706;28;96506;-82
2023/07/13 07:30:23;;;;;;;13.45;2.58;;;18.30;89.40;;;;;;4873541;28;92966;-83
2023/07/13 07:32:49;;;;;;;18.92;3.15;;;18.40;89.60;;;;;;4858130;28;91993;-82
2023/07/13 07:35:15;;;;;;;13.13;3.00;;;18.40;89.00;;;;;;4858829;28;95452;-83
2023/07/13 07:37:40;;;;;;;13.30;3.00;;;18.50;87.80;;;;;;4857513;28;96117;-83
2023/07/13 07:40:07;;;;;;;23.75;3.58;;;18.60;87.80;;;;;;4875538;28;93553;-81
2023/07/13 07:42:33;;;;;;;16.33;3.03;;;18.60;87.60;;;;;;4874899;28;92963;-82
2023/07/13 07:45:00;;;;;;;15.57;2.55;;;18.70;87.20;;;;;;4856552;28;95028;-82
2023/07/13 07:47:26;;;;;;;17.08;3.58;;;18.70;87.30;;;;;;4873191;28;96105;-82
2023/07/13 07:49:52;;;;;;;15.05;3.65;;;18.70;87.00;;;;;;4866017;28;92990;-83
2023/07/13 07:52:18;;;;;;;11.90;2.42;;;18.80;86.40;;;;;;4857675;28;92654;-80
2023/07/13 07:54:44;;;;;;;10.57;2.20;;;18.90;87.00;;;;;;4872622;28;93844;-82
2023/07/13 07:57:09;;;;;;;10.10;2.30;;;19.00;86.20;;;;;;4873752;28;96802;-82
2023/07/13 07:59:37;;;;;;;9.05;2.40;;;19.00;85.90;;;;;;4874947;28;92612;-82
2023/07/13 08:02:03;;;;;;;12.52;2.75;;;19.10;86.20;;;;;;4857356;28;93172;-81
2023/07/13 08:04:28;;;;;;;12.18;2.13;;;19.20;85.30;;;;;;4871894;28;94373;-81
2023/07/13 08:06:56;;;;;;;10.15;3.03;;;19.30;85.60;;;;;;4856821;28;97452;-83
2023/07/13 08:09:22;;;;;;;13.10;2.78;;;19.40;84.20;;;;;;4857080;28;92724;-82
2023/07/13 08:11:48;;;;;;;10.88;2.60;;;19.50;83.20;;;;;;4857370;28;92718;-82
2023/07/13 08:14:14;;;;;;;9.07;2.45;;;19.60;83.10;;;;;;4875064;28;93042;-82
2023/07/13 08:16:40;;;;;;;11.50;2.42;;;19.60;83.00;;;;;;4866708;28;96623;-83
2023/07/13 08:19:06;;;;;;;14.80;2.38;;;19.60;82.70;;;;;;4871747;28;92895;-83
2023/07/13 08:21:32;;;;;;;6.38;1.95;;;19.60;83.10;;;;;;4874478;28;92134;-81
2023/07/13 08:23:57;;;;;;;11.57;2.42;;;19.70;82.40;;;;;;4874307;28;93619;-82
2023/07/13 08:26:23;;;;;;;10.57;2.63;;;19.70;82.30;;;;;;4860354;28;96711;-80
2023/07/13 08:28:49;;;;;;;16.88;2.88;;;19.80;81.70;;;;;;4858263;28;94720;-83
2023/07/13 08:31:14;;;;;;;12.52;2.08;;;19.80;82.80;;;;;;4876429;28;93020;-81
2023/07/13 08:33:40;;;;;;;9.55;2.33;;;19.90;81.70;;;;;;4865265;28;96313;-81
2023/07/13 08:36:06;;;;;;;8.75;2.10;;;20.00;80.60;;;;;;4875926;28;93355;-81
2023/07/13 08:38:32;;;;;;;10.20;2.38;;;20.10;80.90;;;;;;4876999;28;93351;-80
2023/07/13 08:40:58;;;;;;;15.95;3.63;;;20.20;79.90;;;;;;4876577;28;92455;-80
2023/07/13 08:43:35;;;;;;;8.40;2.70;;;20.30;79.60;;;;;;4874722;28;96419;-81
2023/07/13 08:46:26;;;;;;;9.73;2.10;;;20.40;79.00;;;;;;4877593;28;93437;-81
2023/07/13 08:49:02;;;;;;;13.50;2.15;;;20.50;79.00;;;;;;4877272;28;92539;-82
2023/07/13 08:51:50;;;;;;;11.38;1.85;;;20.60;78.70;;;;;;4875129;28;92850;-81
2023/07/13 08:54:28;;;;;;;8.10;2.22;;;20.60;77.90;;;;;;4877141;28;94982;-80
2023/07/13 08:56:56;;;;;;;11.90;2.42;;;20.60;78.50;;;;;;4875411;28;97087;-81
2023/07/13 08:59:27;;;;;;;10.80;2.20;;;20.70;77.90;;;;;;4877316;28;92248;-81
2023/07/13 09:02:03;;;;;;;11.27;2.17;;;20.70;78.40;;;;;;4859552;28;92589;-81
2023/07/13 09:04:35;;;;;;;8.70;2.47;;;20.80;77.90;;;;;;4876072;28;93918;-80
2023/07/13 09:07:11;;;;;;;16.33;2.53;;;20.90;76.50;;;;;;4873410;28;94973;-81
2023/07/13 09:10:03;;;;;;;11.23;2.55;;;21.00;76.90;;;;;;4875974;28;92523;-80
2023/07/13 09:12:47;;;;;;;8.20;2.00;;;21.00;76.20;;;;;;4859101;28;92139;-80
2023/07/13 09:15:35;;;;;;;10.02;1.90;;;21.00;76.30;;;;;;4858856;28;95711;-80
2023/07/13 09:18:35;;;;;;;8.13;1.67;;;21.00;76.40;;;;;;4859124;28;95738;-81
2023/07/13 09:21:12;;;;;;;9.85;2.10;;;21.10;76.30;;;;;;4852944;28;93646;-80
2023/07/13 09:23:39;;;;;;;7.45;1.92;;;21.40;77.20;;;;;;4860640;28;92421;-81
2023/07/13 09:26:15;;;;;;;9.23;2.13;;;21.50;75.70;;;;;;4875334;28;100892;-82
2023/07/13 09:28:56;;;;;;;11.63;2.72;;;21.50;74.20;;;;;;4857749;28;96135;-82
2023/07/13 09:31:41;;;;;;;10.18;2.30;;;21.60;73.30;;;;;;4859309;28;92900;-80
2023/07/13 09:34:11;;;;;;;7.97;1.80;;;21.60;72.30;;;;;;4875105;28;92921;-80
2023/07/13 09:36:36;;;;;;;16.05;2.88;;;21.60;73.70;;;;;;4874815;28;93401;-81
2023/07/13 09:39:05;;;;;;;8.40;2.10;;;21.70;72.20;;;;;;4859063;28;95781;-81
2023/07/13 09:41:45;;;;;;;5.22;2.05;;;21.60;71.90;;;;;;4875995;28;93122;-80
2023/07/13 09:44:13;;;;;;;12.82;2.70;;;21.70;73.00;;;;;;4858437;28;93889;-80
2023/07/13 09:46:45;;;;;;;5.78;1.33;;;21.90;72.40;;;;;;4875390;28;93900;-80
2023/07/13 09:49:12;;;;;;;5.65;1.90;;;21.90;69.30;;;;;;4875415;28;94397;-80
2023/07/13 09:51:40;;;;;;;6.22;1.58;;;21.90;70.40;;;;;;4875699;28;93396;-81
2023/07/13 09:54:16;;;;;;;8.25;2.25;;;21.90;69.70;;;;;;4874765;28;92249;-81
2023/07/13 09:56:42;;;;;;;14.88;2.35;;;21.90;70.80;;;;;;4875590;28;93658;-83
2023/07/13 09:59:19;;;;;;;9.82;1.55;;;22.00;70.60;;;;;;4859595;28;96593;-83
2023/07/13 10:01:48;;;;;;;7.32;1.40;;;22.20;70.40;;;;;;4858718;28;92869;-83
2023/07/13 10:04:18;;;;;;;8.10;1.73;;;22.30;67.70;;;;;;4866344;28;91677;-83
2023/07/13 10:06:44;;;;;;;5.88;1.27;;;22.40;68.50;;;;;;4858816;28;95779;-82
2023/07/13 10:09:14;;;;;;;7.32;1.63;;;22.50;67.40;;;;;;4858179;28;95206;-82
2023/07/13 10:11:41;;;;;;;8.43;1.67;;;22.50;67.10;;;;;;4873556;28;93602;-83
2023/07/13 10:14:12;;;;;;;4.47;1.10;;;22.40;66.50;;;;;;4859197;28;92984;-83
2023/07/13 10:16:39;;;;;;;7.45;1.13;;;22.40;66.90;;;;;;4875173;28;93772;-83
2023/07/13 10:19:10;;;;;;;7.68;1.80;;;22.50;67.50;;;;;;4858981;28;97116;-83
2023/07/13 10:21:54;;;;;;;7.43;1.10;;;22.60;65.50;;;;;;4859238;28;92635;-83
2023/07/13 10:24:26;;;;;;;7.95;1.48;;;22.60;66.80;;;;;;4858409;28;92675;-84
2023/07/13 10:27:04;;;;;;;5.35;1.73;;;22.80;67.10;;;;;;4857294;28;96640;-82
2023/07/13 10:29:35;;;;;;;7.30;1.23;;;22.90;66.30;;;;;;4857323;28;96569;-82
2023/07/13 10:32:01;;;;;;;10.77;1.67;;;23.10;65.30;;;;;;4873585;28;92748;-83
2023/07/13 10:34:28;;;;;;;4.45;1.30;;;23.20;64.10;;;;;;4865376;28;93124;-81
2023/07/13 10:36:54;;;;;;;9.15;1.02;;;23.20;63.10;;;;;;4865630;28;96411;-82
2023/07/13 10:39:26;;;;;;;7.72;1.25;;;23.10;64.40;;;;;;4857831;28;96876;-81
2023/07/13 10:42:06;;;;;;;8.77;1.50;;;23.20;65.90;;;;;;4872590;28;93474;-81
2023/07/13 10:44:33;;;;;;;7.03;1.10;;;23.40;63.10;;;;;;4867121;28;92573;-79
2023/07/13 10:47:00;;;;;;;5.78;1.40;;;23.40;63.20;;;;;;4874530;28;99980;-81
2023/07/13 10:49:29;;;;;;;6.25;1.17;;;23.30;62.40;;;;;;4874840;28;93481;-80
2023/07/13 10:51:55;;;;;;;6.55;1.15;;;23.10;64.00;;;;;;4875308;28;93351;-81
2023/07/13 10:54:26;;;;;;;5.55;1.35;;;23.10;63.10;;;;;;4875167;28;91972;-81
2023/07/13 10:57:16;;;;;;;6.18;1.15;;;23.20;62.40;;;;;;4874460;28;96482;-81
2023/07/13 10:59:45;;;;;;;3.85;1.05;;;23.20;62.80;;;;;;4858136;28;95771;-81
2023/07/13 11:02:27;;;;;;;4.05;1.00;;;23.10;63.20;;;;;;4874392;28;93887;-82
2023/07/13 11:04:54;;;;;;;6.88;1.35;;;23.10;62.70;;;;;;4875218;28;92639;-81
2023/07/13 11:07:22;;;;;;;4.70;1.25;;;23.10;63.80;;;;;;4873263;28;92841;-81
2023/07/13 11:09:53;;;;;;;9.82;1.73;;;23.20;64.40;;;;;;4857149;28;94052;-82
2023/07/13 11:12:26;;;;;;;4.05;0.80;;;23.20;62.40;;;;;;4875398;28;93842;-81
2023/07/13 11:14:54;;;;;;;8.00;1.30;;;23.20;62.10;;;;;;4873852;28;93171;-82
2023/07/13 11:17:35;;;;;;;9.77;1.70;;;23.20;62.90;;;;;;4876171;28;93805;-81
2023/07/13 11:20:23;;;;;;;4.68;1.05;;;23.10;61.40;;;;;;4858038;28;96292;-82
2023/07/13 11:22:50;;;;;;;3.63;1.10;;;22.80;62.80;;;;;;4857347;28;92949;-85
2023/07/13 11:25:31;;;;;;;7.07;1.17;;;22.70;64.10;;;;;;4856538;28;93452;-84
2023/07/13 11:28:17;;;;;;;5.40;1.48;;;22.60;64.20;;;;;;4859144;28;97864;-84
2023/07/13 11:30:55;;;;;;;3.95;1.00;;;22.50;66.20;;;;;;4860830;28;97032;-83
2023/07/13 11:33:36;;;;;;;9.52;1.30;;;22.60;63.50;;;;;;4875397;28;92827;-83
2023/07/13 11:36:31;;;;;;;5.60;1.65;;;22.70;63.40;;;;;;4856933;28;93634;-83
2023/07/13 11:39:05;;;;;;;4.78;1.00;;;23.00;64.00;;;;;;4857880;28;96701;-84
2023/07/13 11:41:35;;;;;;;3.47;1.13;;;23.30;62.30;;;;;;4858041;28;96468;-83
2023/07/13 11:44:15;;;;;;;4.70;1.20;;;23.40;62.80;;;;;;4857453;28;92874;-81
2023/07/13 11:46:50;;;;;;;6.07;1.20;;;23.60;59.70;;;;;;4874926;28;92066;-81
2023/07/13 11:49:21;;;;;;;7.63;1.25;;;23.60;57.80;;;;;;4856587;28;95432;-82
2023/07/13 11:51:53;;;;;;;5.18;1.13;;;23.60;59.00;;;;;;4873744;28;94116;-83
2023/07/13 11:54:55;;;;;;;8.70;1.43;;;23.70;59.20;;;;;;4857510;28;93857;-83
2023/07/13 11:57:24;;;;;;;5.63;1.00;;;24.00;59.50;;;;;;4869984;28;93524;-83
2023/07/13 11:59:52;;;;;;;4.53;0.98;;;24.10;56.50;;;;;;4858556;28;96345;-83
2023/07/13 12:02:39;;;;;;;4.93;1.08;;;24.20;57.90;;;;;;4860824;28;96105;-86
2023/07/13 12:05:06;;;;;;;4.32;1.00;;;24.20;57.00;;;;;;4861185;28;92781;-83
2023/07/13 12:07:33;;;;;;;7.60;1.40;;;24.20;56.60;;;;;;4860695;28;92539;-83
2023/07/13 12:10:10;;;;;;;5.72;1.00;;;24.10;58.80;;;;;;4860229;28;95561;-83
2023/07/13 12:12:37;;;;;;;7.63;1.33;;;24.30;57.10;;;;;;4862168;28;95911;-83
2023/07/13 12:15:12;;;;;;;4.30;0.73;;;24.30;56.40;;;;;;4869778;28;92199;-84
2023/07/13 12:17:41;;;;;;;5.60;1.08;;;24.20;55.50;;;;;;4867913;28;93057;-83
2023/07/13 12:20:26;;;;;;;4.53;0.90;;;24.40;55.00;;;;;;4859317;28;102000;-84
2023/07/13 12:22:53;;;;;;;6.60;0.90;;;24.50;53.60;;;;;;4859461;28;97012;-84
2023/07/13 12:25:29;;;;;;;9.18;1.05;;;24.70;56.50;;;;;;4860569;28;94974;-88
2023/07/13 12:27:55;;;;;;;3.40;0.85;;;25.00;54.20;;;;;;4861351;28;92343;-84
2023/07/13 12:30:31;;;;;;;8.68;1.10;;;25.10;53.00;;;;;;4869540;28;96232;-84
2023/07/13 12:33:22;;;;;;;5.22;1.02;;;25.00;54.20;;;;;;4861140;28;93838;-86
2023/07/13 12:36:03;;;;;;;2.85;0.90;;;25.10;54.10;;;;;;4852118;28;92680;-86
2023/07/13 12:38:38;;;;;;;5.28;0.85;;;25.00;52.70;;;;;;4878905;28;92645;-83
2023/07/13 12:41:07;;;;;;;3.25;1.00;;;24.90;53.90;;;;;;4861428;28;101080;-84
2023/07/13 12:43:45;;;;;;;3.22;0.85;;;25.00;52.60;;;;;;4860747;28;95454;-85
2023/07/13 12:46:29;;;;;;;3.42;0.75;;;25.20;51.60;;;;;;4860903;28;93443;-86
2023/07/13 12:48:58;;;;;;;5.40;0.80;;;25.40;51.20;;;;;;4859613;28;92831;-85
2023/07/13 12:51:32;;;;;;;2.33;0.80;;;25.60;52.50;;;;;;4859560;28;95631;-82